createdAt,value
2018-06-21T00:02:27.269Z,19.30
2018-06-21T00:04:57.942Z,19.20
2018-06-21T00:07:28.670Z,19.30
2018-06-21T00:10:00.609Z,19.20
2018-06-21T00:12:31.173Z,19.00
2018-06-21T00:15:01.723Z,19.00
2018-06-21T00:17:32.329Z,19.00
2018-06-21T00:20:03.057Z,19.10
2018-06-21T00:25:03.906Z,19.00
2018-06-21T00:27:34.445Z,19.00
2018-06-21T00:30:05.157Z,19.00
2018-06-21T00:32:35.949Z,18.90
2018-06-21T00:35:06.895Z,18.90
2018-06-21T00:40:07.847Z,18.90
2018-06-21T00:42:38.498Z,18.80
2018-06-21T00:45:10.956Z,18.80
2018-06-21T00:47:42.166Z,18.70
2018-06-21T00:50:12.758Z,18.80
2018-06-21T00:55:13.497Z,18.80
2018-06-21T00:57:44.210Z,18.80
2018-06-21T01:00:14.797Z,18.80
2018-06-21T01:02:46.353Z,18.70
2018-06-21T01:05:17.177Z,18.70
2018-06-21T01:07:47.900Z,18.90
2018-06-21T01:10:18.530Z,18.90
2018-06-21T01:12:49.184Z,18.80
2018-06-21T01:15:19.879Z,18.80
2018-06-21T01:17:50.522Z,18.80
2018-06-21T01:20:21.326Z,18.70
2018-06-21T01:22:52.103Z,18.70
2018-06-21T01:25:22.715Z,18.60
2018-06-21T01:27:53.347Z,18.60
2018-06-21T01:30:24.094Z,18.60
2018-06-21T01:32:54.766Z,18.60
2018-06-21T01:35:26.057Z,18.50
2018-06-21T01:37:56.809Z,18.40
2018-06-21T01:40:27.438Z,18.40
2018-06-21T01:45:28.202Z,18.30
2018-06-21T01:47:58.848Z,18.20
2018-06-21T01:50:29.582Z,18.30
2018-06-21T01:53:00.213Z,18.20
2018-06-21T01:55:30.839Z,18.20
2018-06-21T02:00:31.582Z,18.20
2018-06-21T02:03:02.291Z,18.30
2018-06-21T02:05:33.181Z,18.40
2018-06-21T02:08:04.003Z,18.50
2018-06-21T02:10:34.725Z,18.60
2018-06-21T02:13:05.322Z,18.80
2018-06-21T02:15:35.859Z,18.90
2018-06-21T02:18:06.480Z,19.10
2018-06-21T02:20:38.016Z,19.20
2018-06-21T02:23:08.440Z,19.30
2018-06-21T02:25:38.948Z,19.40
2018-06-21T02:28:09.635Z,19.40
2018-06-21T02:30:40.361Z,19.60
2018-06-21T02:33:10.934Z,19.60
2018-06-21T02:35:42.260Z,19.70
2018-06-21T02:38:13.016Z,19.80
2018-06-21T02:40:43.696Z,19.90
2018-06-21T02:43:14.267Z,19.90
2018-06-21T02:45:44.923Z,19.80
2018-06-21T02:48:16.023Z,19.90
2018-06-21T02:50:46.669Z,19.90
2018-06-21T02:53:17.487Z,19.80
2018-06-21T02:55:48.820Z,19.80
2018-06-21T02:58:19.424Z,19.80
2018-06-21T03:00:50.064Z,19.70
2018-06-21T03:03:20.668Z,19.80
2018-06-21T03:05:51.386Z,19.80
2018-06-21T03:10:52.149Z,19.80
2018-06-21T03:15:52.750Z,19.70
2018-06-21T03:18:23.434Z,19.80
2018-06-21T03:20:54.498Z,19.70
2018-06-21T03:23:25.105Z,19.70
2018-06-21T03:25:55.761Z,19.60
2018-06-21T03:28:26.365Z,19.60
2018-06-21T03:30:57.171Z,19.60
2018-06-21T03:33:31.994Z,19.60
2018-06-21T03:36:02.425Z,19.60
2018-06-21T03:38:32.991Z,19.60
2018-06-21T03:46:04.129Z,19.70
2018-06-21T03:48:35.242Z,19.70
2018-06-21T03:51:05.948Z,19.70
2018-06-21T03:53:37.294Z,19.70
2018-06-21T03:56:07.840Z,19.70
2018-06-21T03:58:38.435Z,19.70
2018-06-21T04:01:09.266Z,19.70
2018-06-21T04:03:39.806Z,19.60
2018-06-21T04:06:10.375Z,19.60
2018-06-21T04:08:40.989Z,19.70
2018-06-21T04:11:11.493Z,19.70
2018-06-21T04:16:13.149Z,19.70
2018-06-21T04:18:43.829Z,19.80
2018-06-21T04:21:15.046Z,19.80
2018-06-21T04:23:45.650Z,19.80
2018-06-21T04:26:16.315Z,19.80
2018-06-21T04:28:47.186Z,19.90
2018-06-21T04:31:17.899Z,20.00
2018-06-21T04:33:48.715Z,20.10
2018-06-21T04:36:19.497Z,20.10
2018-06-21T04:38:54.380Z,20.10
2018-06-21T04:41:25.293Z,20.10
2018-06-21T04:43:56.676Z,20.00
2018-06-21T04:46:27.278Z,20.00
2018-06-21T04:48:58.059Z,20.10
2018-06-21T04:51:28.622Z,20.20
2018-06-21T04:53:59.478Z,20.20
2018-06-21T04:56:30.492Z,20.30
2018-06-21T04:59:01.220Z,20.30
2018-06-21T05:01:31.811Z,20.30
2018-06-21T05:04:02.458Z,20.30
2018-06-21T05:06:34.619Z,20.30
2018-06-21T05:09:08.697Z,20.60
2018-06-21T05:11:39.384Z,21.40
2018-06-21T05:14:10.321Z,22.70
2018-06-21T05:16:41.132Z,23.40
2018-06-21T05:19:12.420Z,23.80
2018-06-21T05:21:43.112Z,24.90
2018-06-21T05:24:14.021Z,26.70
2018-06-21T05:26:45.204Z,28.20
2018-06-21T05:29:15.929Z,29.90
2018-06-21T05:31:46.454Z,31.40
2018-06-21T05:34:17.113Z,32.60
2018-06-21T05:36:47.807Z,33.20
2018-06-21T05:39:18.668Z,34.00
2018-06-21T05:44:19.474Z,34.60
2018-06-21T05:46:49.979Z,34.60
2018-06-21T05:49:21.082Z,34.00
2018-06-21T05:51:52.221Z,34.70
2018-06-21T05:54:23.503Z,36.00
2018-06-21T05:56:54.223Z,36.50
2018-06-21T05:59:24.832Z,36.10
2018-06-21T06:01:55.733Z,36.80
2018-06-21T06:04:26.206Z,36.90
2018-06-21T06:06:56.789Z,37.50
2018-06-21T06:09:27.339Z,37.00
2018-06-21T06:11:57.925Z,37.50
2018-06-21T06:14:29.060Z,37.70
2018-06-21T06:16:59.910Z,38.80
2018-06-21T06:19:30.450Z,39.10
2018-06-21T06:22:01.137Z,39.60
2018-06-21T06:27:02.638Z,38.80
2018-06-21T06:29:33.347Z,38.10
2018-06-21T06:32:03.907Z,37.50
2018-06-21T06:34:34.455Z,37.30
2018-06-21T06:37:05.181Z,38.10
2018-06-21T06:39:35.807Z,38.00
2018-06-21T06:42:06.667Z,37.70
2018-06-21T06:44:37.269Z,36.70
2018-06-21T06:47:07.888Z,35.50
2018-06-21T06:49:38.547Z,35.50
2018-06-21T06:52:09.154Z,35.40
2018-06-21T06:54:39.899Z,35.10
2018-06-21T06:57:10.815Z,33.40
2018-06-21T06:59:41.844Z,32.80
2018-06-21T07:02:12.578Z,33.20
2018-06-21T07:04:43.142Z,34.00
2018-06-21T07:07:13.733Z,34.40
2018-06-21T07:12:15.452Z,35.00
2018-06-21T07:14:46.069Z,35.10
2018-06-21T07:17:16.910Z,34.30
2018-06-21T07:19:47.504Z,34.60
2018-06-21T07:22:18.021Z,36.30
2018-06-21T07:24:48.643Z,37.60
2018-06-21T07:27:19.314Z,37.90
2018-06-21T07:29:50.320Z,38.40
2018-06-21T07:32:20.876Z,39.40
2018-06-21T07:34:51.940Z,39.90
2018-06-21T07:37:22.642Z,41.00
2018-06-21T07:39:53.306Z,41.20
2018-06-21T07:42:24.000Z,42.40
2018-06-21T07:44:54.763Z,42.90
2018-06-21T07:47:25.496Z,43.00
2018-06-21T07:49:56.172Z,42.90
2018-06-21T07:52:26.874Z,43.30
2018-06-21T07:54:57.711Z,42.80
2018-06-21T07:57:28.641Z,42.90
2018-06-21T07:59:59.473Z,41.90
2018-06-21T08:02:30.320Z,40.60
2018-06-21T08:05:00.972Z,39.40
2018-06-21T08:07:31.941Z,39.50
2018-06-21T08:10:02.613Z,38.40
2018-06-21T08:12:33.252Z,37.90
2018-06-21T08:15:03.853Z,38.50
2018-06-21T08:17:34.597Z,37.90
2018-06-21T08:20:05.345Z,38.50
2018-06-21T08:22:36.042Z,36.80
2018-06-21T08:25:07.078Z,36.10
2018-06-21T08:27:37.646Z,35.90
2018-06-21T08:32:39.059Z,36.30
2018-06-21T08:35:09.751Z,35.90
2018-06-21T08:37:40.547Z,35.10
2018-06-21T08:40:11.413Z,35.00
2018-06-21T08:45:15.273Z,32.90
2018-06-21T08:47:46.040Z,32.70
2018-06-21T08:50:16.620Z,32.70
2018-06-21T08:52:47.850Z,31.90
2018-06-21T08:55:18.469Z,30.90
2018-06-21T08:57:49.764Z,29.50
2018-06-21T09:00:20.360Z,28.90
2018-06-21T09:02:51.279Z,28.60
2018-06-21T09:05:21.839Z,28.30
2018-06-21T09:07:52.707Z,27.70
2018-06-21T09:10:23.216Z,27.10
2018-06-21T10:14:02.112Z,21.70
2018-06-21T10:16:32.779Z,22.10
2018-06-21T10:19:03.497Z,22.20
2018-06-21T10:24:04.378Z,23.10
2018-06-21T10:26:35.151Z,23.20
2018-06-21T10:29:05.907Z,22.60
2018-06-21T10:31:36.675Z,22.20
2018-06-21T10:34:07.364Z,22.00
2018-06-21T10:36:38.525Z,21.80
2018-06-21T10:39:13.209Z,21.40
2018-06-21T10:41:44.040Z,21.40
2018-06-21T10:44:14.929Z,21.20
2018-06-21T10:46:45.614Z,21.50
2018-06-21T10:49:16.199Z,21.60
2018-06-21T10:51:46.713Z,21.90
2018-06-21T10:54:17.354Z,23.40
2018-06-21T10:56:48.119Z,24.60
2018-06-21T10:59:18.753Z,25.80
2018-06-21T11:01:49.277Z,26.80
2018-06-21T11:04:19.991Z,26.80
2018-06-21T11:09:20.853Z,26.20
2018-06-21T11:11:51.610Z,26.30
2018-06-21T11:14:22.254Z,26.40
2018-06-21T11:16:53.041Z,26.10
2018-06-21T11:19:23.666Z,26.40
2018-06-21T11:21:54.322Z,26.10
2018-06-21T11:24:24.996Z,26.70
2018-06-21T11:26:55.655Z,26.30
2018-06-21T11:29:26.224Z,25.80
2018-06-21T11:31:57.004Z,25.60
2018-06-21T11:34:27.748Z,25.20
2018-06-21T11:36:58.443Z,25.40
2018-06-21T11:39:29.217Z,25.90
2018-06-21T11:41:59.888Z,25.70
2018-06-21T11:44:30.436Z,26.30
2018-06-21T11:47:01.177Z,25.80
2018-06-21T11:49:31.777Z,25.70
2018-06-21T11:52:02.381Z,25.30
2018-06-21T11:54:33.029Z,25.20
2018-06-21T11:57:03.793Z,25.20
2018-06-21T11:59:34.542Z,25.30
2018-06-21T12:02:05.102Z,25.40
2018-06-21T12:04:35.838Z,25.40
2018-06-21T12:07:06.813Z,25.10
2018-06-21T12:09:37.656Z,25.40
2018-06-21T12:12:08.412Z,25.30
2018-06-21T12:14:40.263Z,25.10
2018-06-21T12:17:10.940Z,25.20
2018-06-21T12:19:41.936Z,25.20
2018-06-21T12:22:12.525Z,25.20
2018-06-21T12:24:43.292Z,24.60
2018-06-21T12:27:13.989Z,24.30
2018-06-21T12:29:44.638Z,24.00
2018-06-21T12:32:15.598Z,23.70
2018-06-21T12:34:46.353Z,23.70
2018-06-21T12:37:17.054Z,23.80
2018-06-21T12:39:47.990Z,24.30
2018-06-21T12:42:19.029Z,24.20
2018-06-21T12:47:19.786Z,24.00
2018-06-21T12:49:50.703Z,23.60
2018-06-21T12:52:21.220Z,23.60
2018-06-21T12:54:51.971Z,23.80
2018-06-21T12:57:22.443Z,24.10
2018-06-21T12:59:52.944Z,24.40
2018-06-21T13:02:23.514Z,24.40
2018-06-21T13:04:54.090Z,24.50
2018-06-21T13:07:24.855Z,24.70
2018-06-21T13:10:12.353Z,24.60
2018-06-21T13:13:05.121Z,24.50
2018-06-21T13:15:35.873Z,24.50
2018-06-21T13:18:07.098Z,24.40
2018-06-21T13:20:37.726Z,24.40
2018-06-21T13:23:08.395Z,24.10
2018-06-21T13:25:38.973Z,24.00
2018-06-21T13:28:09.721Z,24.10
2018-06-21T13:30:40.497Z,24.10
2018-06-21T13:33:11.104Z,24.10
2018-06-21T13:35:41.764Z,23.80
2018-06-21T13:38:12.452Z,23.60
2018-06-21T13:40:43.528Z,23.30
2018-06-21T13:43:14.994Z,23.20
2018-06-21T13:45:45.556Z,23.50
2018-06-21T13:48:16.418Z,23.50
2018-06-21T13:53:17.870Z,23.60
2018-06-21T13:55:48.619Z,23.60
2018-06-21T13:58:19.323Z,23.30
2018-06-21T14:00:50.012Z,23.50
2018-06-21T14:03:20.484Z,23.60
2018-06-21T14:05:51.119Z,23.40
2018-06-21T14:08:21.950Z,23.30
2018-06-21T14:10:52.528Z,23.30
2018-06-21T14:13:23.322Z,23.30
2018-06-21T14:15:54.798Z,23.30
2018-06-21T14:18:25.491Z,23.40
2018-06-21T14:20:56.237Z,23.40
2018-06-21T14:23:26.913Z,23.30
2018-06-21T14:25:58.371Z,23.30
2018-06-21T14:28:28.992Z,23.20
2018-06-21T14:30:59.725Z,23.10
2018-06-21T14:33:30.468Z,23.10
2018-06-21T14:36:01.214Z,23.10
2018-06-21T14:38:31.965Z,23.10
2018-06-21T14:41:02.657Z,23.10
2018-06-21T14:43:33.391Z,23.30
2018-06-21T14:46:04.239Z,23.40
2018-06-21T14:48:35.171Z,23.30
2018-06-21T14:51:05.809Z,23.00
2018-06-21T14:53:36.625Z,22.90
2018-06-21T14:56:07.590Z,22.80
2018-06-21T14:58:38.287Z,23.00
2018-06-21T15:03:44.282Z,22.60
2018-06-21T15:08:44.966Z,22.70
2018-06-21T15:13:48.581Z,22.60
2018-06-21T15:16:21.201Z,22.80
2018-06-21T15:18:52.161Z,22.60
2018-06-21T15:23:53.083Z,22.40
2018-06-21T15:26:23.977Z,22.30
2018-06-21T15:28:54.842Z,22.30
2018-06-21T15:31:25.417Z,22.20
2018-06-21T15:33:56.210Z,22.10
2018-06-21T15:36:26.799Z,22.00
2018-06-21T15:38:59.754Z,22.10
2018-06-21T15:41:30.956Z,22.20
2018-06-21T15:44:01.674Z,22.30
2018-06-21T15:46:33.012Z,22.10
2018-06-21T15:49:03.842Z,21.90
2018-06-21T15:51:34.476Z,21.90
2018-06-21T15:54:05.435Z,22.10
2018-06-21T15:56:36.857Z,22.00
2018-06-21T15:59:08.060Z,21.70
2018-06-21T16:01:38.842Z,21.30
2018-06-21T16:04:09.665Z,21.50
2018-06-21T16:06:40.467Z,21.30
2018-06-21T16:09:11.273Z,21.50
2018-06-21T16:11:42.210Z,21.50
2018-06-21T16:14:12.792Z,21.30
2018-06-21T16:16:43.656Z,21.20
2018-06-21T16:19:14.985Z,21.20
2018-06-21T16:24:16.784Z,21.10
2018-06-21T16:26:47.424Z,21.20
2018-06-21T16:29:18.014Z,21.00
2018-06-21T16:31:48.687Z,21.00
2018-06-21T16:34:19.553Z,21.00
2018-06-21T16:36:50.408Z,20.80
2018-06-21T16:39:21.134Z,20.90
2018-06-21T16:41:51.852Z,20.80
2018-06-21T16:44:22.528Z,20.80
2018-06-21T16:46:53.323Z,20.80
2018-06-21T16:49:24.011Z,20.80
2018-06-21T16:51:54.539Z,20.40
2018-06-21T16:54:25.284Z,20.30
2018-06-21T16:56:55.991Z,20.30
2018-06-21T16:59:26.519Z,20.40
2018-06-21T17:01:57.642Z,20.30
2018-06-21T17:04:28.434Z,20.10
2018-06-21T17:06:58.950Z,20.00
2018-06-21T17:09:29.849Z,20.00
2018-06-21T17:12:00.422Z,20.10
2018-06-21T17:14:32.124Z,20.00
2018-06-21T17:17:02.770Z,19.90
2018-06-21T17:19:33.596Z,19.80
2018-06-21T17:22:04.195Z,19.80
2018-06-21T17:24:35.581Z,19.70
2018-06-21T17:27:06.290Z,19.60
2018-06-21T17:29:36.917Z,19.60
2018-06-21T17:32:07.636Z,19.40
2018-06-21T17:34:38.552Z,19.40
2018-06-21T17:37:10.100Z,19.30
2018-06-21T17:39:40.896Z,19.10
2018-06-21T17:42:11.609Z,19.00
2018-06-21T17:44:42.129Z,19.00
2018-06-21T17:47:13.029Z,18.90
2018-06-21T17:49:43.582Z,18.60
2018-06-21T17:52:14.361Z,18.40
2018-06-21T17:54:44.831Z,18.30
2018-06-21T17:57:15.562Z,18.30
2018-06-21T17:59:46.679Z,18.20
2018-06-21T18:02:17.201Z,18.20
2018-06-21T18:04:47.712Z,18.00
2018-06-21T18:07:18.470Z,17.90
2018-06-21T18:09:49.333Z,17.70
2018-06-21T18:12:20.063Z,17.50
2018-06-21T18:14:50.871Z,17.40
2018-06-21T18:17:21.414Z,17.30
2018-06-21T18:19:52.134Z,17.20
2018-06-21T18:22:22.856Z,17.00
2018-06-21T18:24:53.712Z,16.90
2018-06-21T18:27:25.183Z,16.90
2018-06-21T18:29:55.929Z,16.70
2018-06-21T18:34:56.974Z,16.70
2018-06-21T18:37:27.678Z,16.60
2018-06-21T18:39:58.367Z,16.50
2018-06-21T18:42:29.085Z,16.40
2018-06-21T18:44:59.818Z,16.40
2018-06-21T18:50:00.923Z,16.00
2018-06-21T18:52:31.741Z,15.90
2018-06-21T18:55:02.769Z,15.80
2018-06-21T18:57:33.527Z,15.80
2018-06-21T19:00:04.658Z,15.80
2018-06-21T19:02:35.655Z,15.70
2018-06-21T19:05:06.486Z,15.70
2018-06-21T19:07:40.814Z,15.70
2018-06-21T19:10:16.702Z,15.60
2018-06-21T19:12:47.181Z,15.60
2018-06-21T19:15:18.238Z,15.50
2018-06-21T19:17:48.899Z,15.50
2018-06-21T19:20:19.519Z,15.30
2018-06-21T19:22:50.816Z,15.30
2018-06-21T19:25:21.420Z,15.20
2018-06-21T19:27:53.061Z,15.10
2018-06-21T19:30:23.655Z,15.10
2018-06-21T19:32:54.537Z,15.10
2018-06-21T19:35:25.188Z,15.00
2018-06-21T19:37:55.880Z,14.90
2018-06-21T19:40:26.497Z,14.90
2018-06-21T19:42:57.212Z,14.80
2018-06-21T19:45:27.815Z,14.70
2018-06-21T19:47:58.460Z,14.60
2018-06-21T19:50:29.200Z,14.60
2018-06-21T19:52:59.778Z,14.60
2018-06-21T19:55:30.454Z,14.50
2018-06-21T19:58:01.234Z,14.50
2018-06-21T20:00:31.941Z,14.50
2018-06-21T20:03:03.111Z,14.50
2018-06-21T20:05:34.031Z,14.50
2018-06-21T20:08:04.778Z,14.50
2018-06-21T20:10:35.507Z,14.40
2018-06-21T20:13:06.395Z,14.40
2018-06-21T20:15:51.313Z,14.40
2018-06-21T20:18:22.731Z,14.40
2018-06-21T20:20:54.071Z,14.30
2018-06-21T20:23:24.766Z,14.40
2018-06-21T20:25:55.585Z,14.40
2018-06-21T20:28:26.281Z,14.40
2018-06-21T20:30:57.408Z,14.30
2018-06-21T20:33:27.987Z,14.20
2018-06-21T20:35:59.158Z,14.30
2018-06-21T20:38:30.009Z,14.20
2018-06-21T20:41:01.316Z,14.30
2018-06-21T20:43:32.209Z,14.20
2018-06-21T20:46:02.954Z,14.10
2018-06-21T20:48:33.565Z,14.00
2018-06-21T20:51:04.282Z,14.00
2018-06-21T20:53:35.182Z,13.80
2018-06-21T20:56:05.879Z,13.80
2018-06-21T20:58:36.997Z,13.70
2018-06-21T21:01:07.554Z,13.80
2018-06-21T21:03:38.329Z,13.80
2018-06-21T21:06:08.885Z,13.70
2018-06-21T21:11:09.865Z,13.80
2018-06-21T21:13:40.346Z,13.80
2018-06-21T21:18:41.563Z,13.60
2018-06-21T21:21:12.179Z,13.60
2018-06-21T21:23:42.987Z,13.60
2018-06-21T21:26:13.762Z,13.60
2018-06-21T21:28:44.366Z,13.60
2018-06-21T21:31:14.990Z,13.70
2018-06-21T21:36:16.288Z,14.20
2018-06-21T21:38:46.753Z,14.20
2018-06-21T21:41:17.244Z,14.40
2018-06-21T21:43:47.988Z,14.20
2018-06-21T21:46:18.711Z,14.20
2018-06-21T21:48:49.599Z,14.00
2018-06-21T21:51:20.214Z,13.90
2018-06-21T21:53:50.834Z,13.80
2018-06-21T21:56:21.694Z,13.60
2018-06-21T21:58:52.506Z,13.60
2018-06-21T22:01:23.119Z,13.50
2018-06-21T22:03:53.747Z,13.60
2018-06-21T22:06:24.387Z,13.50
2018-06-21T22:08:55.528Z,13.70
2018-06-21T22:11:26.110Z,13.80
2018-06-21T22:14:02.233Z,13.80
2018-06-21T22:16:34.594Z,13.80
2018-06-21T22:19:05.239Z,13.70
2018-06-21T22:21:36.392Z,13.60
2018-06-21T22:24:06.817Z,13.50
2018-06-21T22:26:37.405Z,13.60
2018-06-21T22:29:08.321Z,13.50
2018-06-21T22:31:38.859Z,13.60
2018-06-21T22:34:09.397Z,13.70
2018-06-21T22:36:40.161Z,13.50
2018-06-21T22:39:12.364Z,13.50
2018-06-21T22:41:44.204Z,13.30
2018-06-21T22:44:14.944Z,13.20
2018-06-21T22:46:45.655Z,13.30
2018-06-21T22:49:16.263Z,13.50
2018-06-21T22:51:47.399Z,13.80
2018-06-21T22:54:18.333Z,13.60
2018-06-21T22:56:48.981Z,13.30
2018-06-21T22:59:19.509Z,13.50
2018-06-21T23:01:50.063Z,13.60
2018-06-21T23:04:20.530Z,13.30
2018-06-21T23:06:51.113Z,13.20
2018-06-21T23:09:21.614Z,13.00
2018-06-21T23:11:52.372Z,13.40
2018-06-21T23:14:23.063Z,13.70
2018-06-21T23:16:56.268Z,13.60
2018-06-21T23:19:31.654Z,13.70
2018-06-21T23:22:03.084Z,13.60
2018-06-21T23:24:33.675Z,13.50
2018-06-21T23:27:04.226Z,13.60
2018-06-21T23:32:04.964Z,13.90
2018-06-21T23:37:06.135Z,14.40
2018-06-21T23:39:36.874Z,14.10
2018-06-21T23:42:07.389Z,14.40
2018-06-21T23:44:37.845Z,14.10
2018-06-21T23:49:38.677Z,13.70
2018-06-21T23:52:09.215Z,13.60
2018-06-21T23:54:39.603Z,13.70
2018-06-21T23:57:10.273Z,13.90
2018-06-21T23:59:40.747Z,14.00
